createdAt,value
2018-08-22T00:00:48.834Z,60.72
2018-08-22T00:03:17.477Z,60.98
2018-08-22T00:05:46.390Z,61.24
2018-08-22T00:08:15.701Z,61.42
2018-08-22T00:10:44.402Z,60.87
2018-08-22T00:13:13.382Z,61.21
2018-08-22T00:15:42.168Z,61.67
2018-08-22T00:18:10.969Z,61.68
2018-08-22T00:20:39.629Z,61.71
2018-08-22T00:23:08.245Z,62.05
2018-08-22T00:25:37.079Z,61.79
2018-08-22T00:28:05.893Z,62.08
2018-08-22T00:30:34.737Z,62.04
2018-08-22T00:33:03.393Z,62.15
2018-08-22T00:35:32.055Z,62.46
2018-08-22T00:38:00.742Z,62.44
2018-08-22T00:40:29.537Z,62.47
2018-08-22T00:42:58.562Z,62.29
2018-08-22T00:45:27.434Z,62.20
2018-08-22T00:47:56.131Z,62.74
2018-08-22T00:50:24.946Z,62.53
2018-08-22T00:52:53.723Z,62.28
2018-08-22T00:55:22.395Z,62.67
2018-08-22T00:57:51.296Z,63.08
2018-08-22T01:00:20.059Z,62.94
2018-08-22T01:02:55.271Z,62.87
2018-08-22T01:05:24.590Z,63.09
2018-08-22T01:07:53.541Z,63.09
2018-08-22T01:10:22.283Z,62.72
2018-08-22T01:12:51.057Z,62.71
2018-08-22T01:15:19.784Z,63.08
2018-08-22T01:17:48.519Z,63.29
2018-08-22T01:20:17.290Z,63.46
2018-08-22T01:22:45.946Z,63.63
2018-08-22T01:25:14.644Z,63.42
2018-08-22T01:27:44.374Z,63.69
2018-08-22T01:30:13.340Z,63.34
2018-08-22T01:32:42.115Z,63.77
2018-08-22T01:35:10.874Z,64.07
2018-08-22T01:37:39.579Z,63.69
2018-08-22T01:40:08.236Z,63.50
2018-08-22T01:42:36.935Z,63.79
2018-08-22T01:45:06.003Z,64.01
2018-08-22T01:47:34.726Z,63.96
2018-08-22T01:50:03.535Z,64.06
2018-08-22T01:52:32.201Z,64.41
2018-08-22T01:55:01.200Z,63.93
2018-08-22T01:57:29.917Z,64.31
2018-08-22T01:59:58.607Z,64.40
2018-08-22T02:02:27.458Z,64.43
2018-08-22T02:04:56.266Z,64.65
2018-08-22T02:07:24.926Z,65.09
2018-08-22T02:09:53.663Z,64.84
2018-08-22T02:12:22.347Z,64.73
2018-08-22T02:14:51.205Z,64.41
2018-08-22T02:17:19.916Z,64.37
2018-08-22T02:19:48.838Z,64.53
2018-08-22T02:22:17.690Z,64.32
2018-08-22T02:24:46.502Z,64.23
2018-08-22T02:27:15.257Z,64.06
2018-08-22T02:29:50.530Z,64.23
2018-08-22T02:32:19.186Z,64.11
2018-08-22T02:34:48.002Z,64.21
2018-08-22T02:37:17.120Z,64.20
2018-08-22T02:39:45.947Z,64.20
2018-08-22T02:42:14.615Z,64.29
2018-08-22T02:44:43.339Z,64.19
2018-08-22T02:47:12.467Z,64.44
2018-08-22T02:49:41.106Z,64.30
2018-08-22T02:52:09.950Z,64.36
2018-08-22T02:54:38.701Z,64.36
2018-08-22T02:57:07.480Z,64.26
2018-08-22T02:59:36.410Z,64.54
2018-08-22T03:02:05.066Z,64.56
2018-08-22T03:04:34.440Z,64.86
2018-08-22T03:07:03.161Z,65.21
2018-08-22T03:09:31.826Z,65.09
2018-08-22T03:12:00.660Z,65.07
2018-08-22T03:14:29.610Z,64.88
2018-08-22T03:16:58.390Z,64.80
2018-08-22T03:19:27.187Z,65.12
2018-08-22T03:21:55.883Z,65.14
2018-08-22T03:24:24.902Z,65.32
2018-08-22T03:26:53.873Z,65.45
2018-08-22T03:29:22.567Z,65.59
2018-08-22T03:31:51.378Z,65.80
2018-08-22T03:34:20.149Z,65.93
2018-08-22T03:36:48.839Z,66.08
2018-08-22T03:39:17.490Z,65.92
2018-08-22T03:41:46.138Z,65.96
2018-08-22T03:44:14.903Z,65.81
2018-08-22T03:46:43.571Z,65.71
2018-08-22T03:49:12.349Z,66.06
2018-08-22T03:51:41.047Z,65.73
2018-08-22T03:54:09.881Z,65.78
2018-08-22T03:56:38.637Z,65.82
2018-08-22T03:59:07.282Z,66.21
2018-08-22T04:01:35.984Z,66.13
2018-08-22T04:04:04.704Z,66.15
2018-08-22T04:06:33.473Z,66.17
2018-08-22T04:09:02.290Z,66.35
2018-08-22T04:11:31.086Z,66.17
2018-08-22T04:13:59.723Z,65.96
2018-08-22T04:16:28.406Z,65.96
2018-08-22T04:18:57.095Z,65.86
2018-08-22T04:21:25.833Z,65.83
2018-08-22T04:23:54.512Z,65.52
2018-08-22T04:26:23.258Z,65.49
2018-08-22T04:28:52.210Z,65.67
2018-08-22T04:31:21.001Z,65.96
2018-08-22T04:33:49.775Z,65.68
2018-08-22T04:36:18.422Z,65.96
2018-08-22T04:38:47.057Z,65.85
2018-08-22T04:41:15.941Z,65.88
2018-08-22T04:43:44.693Z,65.89
2018-08-22T04:46:13.725Z,66.08
2018-08-22T04:48:42.616Z,66.56
2018-08-22T04:51:11.350Z,66.00
2018-08-22T04:53:40.018Z,65.67
2018-08-22T04:56:08.981Z,65.79
2018-08-22T04:58:37.681Z,65.60
2018-08-22T05:01:06.661Z,64.73
2018-08-22T05:03:35.411Z,64.59
2018-08-22T05:06:04.061Z,64.65
2018-08-22T05:08:33.306Z,64.38
2018-08-22T05:11:02.081Z,64.75
2018-08-22T05:13:30.840Z,64.76
2018-08-22T05:15:59.491Z,64.73
2018-08-22T05:18:28.135Z,64.65
2018-08-22T05:20:56.965Z,64.44
2018-08-22T05:23:25.641Z,64.21
2018-08-22T05:25:54.321Z,63.95
2018-08-22T05:28:23.047Z,63.95
2018-08-22T05:30:51.780Z,64.53
2018-08-22T05:33:20.456Z,64.07
2018-08-22T05:35:49.150Z,63.99
2018-08-22T05:38:18.069Z,63.96
2018-08-22T05:40:46.810Z,63.50
2018-08-22T05:43:15.463Z,63.85
2018-08-22T05:45:44.256Z,63.72
2018-08-22T05:48:12.996Z,63.46
2018-08-22T05:50:41.685Z,63.75
2018-08-22T05:53:10.418Z,63.30
2018-08-22T05:55:39.069Z,63.01
2018-08-22T05:58:07.984Z,62.45
2018-08-22T06:00:36.859Z,62.39
2018-08-22T06:03:05.514Z,62.45
2018-08-22T06:05:34.222Z,61.98
2018-08-22T06:08:03.046Z,61.60
2018-08-22T06:10:31.932Z,61.38
2018-08-22T06:13:00.619Z,61.67
2018-08-22T06:15:29.276Z,61.27
2018-08-22T06:17:58.525Z,61.37
2018-08-22T06:20:27.377Z,61.14
2018-08-22T06:22:56.066Z,61.01
2018-08-22T06:25:24.748Z,60.51
2018-08-22T06:27:53.566Z,60.48
2018-08-22T06:30:22.311Z,60.11
2018-08-22T06:32:51.040Z,60.29
2018-08-22T06:35:19.672Z,60.02
2018-08-22T06:37:48.691Z,59.29
2018-08-22T06:40:17.349Z,59.06
2018-08-22T06:42:45.994Z,58.73
2018-08-22T06:45:14.799Z,58.39
2018-08-22T06:47:43.517Z,58.37
2018-08-22T06:50:12.218Z,57.79
2018-08-22T06:52:41.022Z,57.95
2018-08-22T06:55:09.731Z,57.73
2018-08-22T06:57:38.497Z,57.82
2018-08-22T07:00:08.493Z,57.42
2018-08-22T07:02:37.296Z,57.08
2018-08-22T07:05:06.334Z,56.64
2018-08-22T07:07:35.068Z,56.61
2018-08-22T07:10:03.860Z,56.11
2018-08-22T07:12:32.538Z,55.93
2018-08-22T07:15:01.239Z,55.93
2018-08-22T07:17:29.933Z,55.85
2018-08-22T07:19:58.602Z,55.64
2018-08-22T07:22:27.537Z,55.65
2018-08-22T07:24:56.193Z,55.66
2018-08-22T07:27:25.083Z,55.45
2018-08-22T07:29:53.981Z,55.67
2018-08-22T07:32:22.862Z,55.90
2018-08-22T07:34:51.992Z,55.67
2018-08-22T07:37:21.060Z,55.33
2018-08-22T07:39:49.733Z,55.34
2018-08-22T07:42:18.421Z,55.14
2018-08-22T07:44:47.066Z,55.05
2018-08-22T07:47:15.765Z,54.92
2018-08-22T07:49:44.445Z,54.75
2018-08-22T07:52:13.980Z,54.29
2018-08-22T07:54:45.885Z,54.05
2018-08-22T07:57:16.214Z,53.77
2018-08-22T07:59:44.998Z,53.03
2018-08-22T08:02:13.661Z,52.87
2018-08-22T08:04:42.304Z,53.24
2018-08-22T08:07:11.277Z,52.59
2018-08-22T08:09:40.023Z,52.10
2018-08-22T08:12:08.728Z,51.54
2018-08-22T08:14:37.725Z,51.67
2018-08-22T08:17:06.536Z,51.91
2018-08-22T08:19:35.328Z,52.58
2018-08-22T08:22:04.013Z,51.73
2018-08-22T08:24:32.776Z,51.24
2018-08-22T08:27:01.716Z,50.86
2018-08-22T08:29:30.685Z,50.02
2018-08-22T08:31:59.431Z,50.10
2018-08-22T08:34:28.087Z,50.63
2018-08-22T08:36:56.950Z,49.99
2018-08-22T08:39:25.600Z,49.78
2018-08-22T08:41:54.297Z,49.24
2018-08-22T08:44:23.051Z,49.47
2018-08-22T08:46:51.828Z,49.67
2018-08-22T08:49:20.584Z,49.30
2018-08-22T08:51:57.771Z,49.01
2018-08-22T08:54:26.661Z,48.47
2018-08-22T08:56:55.332Z,48.25
2018-08-22T08:59:24.245Z,48.36
2018-08-22T09:01:53.047Z,48.33
2018-08-22T09:04:21.898Z,47.98
2018-08-22T09:06:51.015Z,47.99
2018-08-22T09:09:19.785Z,48.58
2018-08-22T09:11:51.354Z,47.36
2018-08-22T09:14:20.102Z,46.94
2018-08-22T09:16:49.561Z,47.01
2018-08-22T09:19:18.498Z,46.07
2018-08-22T09:21:47.305Z,46.24
2018-08-22T09:24:16.106Z,47.34
2018-08-22T09:26:44.802Z,45.50
2018-08-22T09:29:13.886Z,45.37
2018-08-22T09:31:42.559Z,45.11
2018-08-22T09:34:11.384Z,44.61
2018-08-22T09:36:40.173Z,44.22
2018-08-22T09:39:11.959Z,44.90
2018-08-22T09:41:40.721Z,45.00
2018-08-22T09:44:09.542Z,45.27
2018-08-22T09:46:39.621Z,44.70
2018-08-22T09:49:08.735Z,44.19
2018-08-22T09:51:37.713Z,43.98
2018-08-22T09:54:06.502Z,43.64
2018-08-22T09:56:35.210Z,43.12
2018-08-22T09:59:04.157Z,42.82
2018-08-22T10:01:38.304Z,43.74
2018-08-22T10:04:07.095Z,42.90
2018-08-22T10:06:44.880Z,42.99
2018-08-22T10:09:17.065Z,42.63
2018-08-22T10:11:45.945Z,43.85
2018-08-22T10:14:14.718Z,43.34
2018-08-22T10:16:43.486Z,42.78
2018-08-22T10:19:12.146Z,42.97
2018-08-22T10:21:40.863Z,42.12
2018-08-22T10:24:09.615Z,42.82
2018-08-22T10:26:38.544Z,41.26
2018-08-22T10:29:07.373Z,42.52
2018-08-22T10:31:36.081Z,41.01
2018-08-22T10:34:05.061Z,41.47
2018-08-22T10:36:33.709Z,41.13
2018-08-22T10:39:02.620Z,40.49
2018-08-22T10:41:31.429Z,40.29
2018-08-22T10:44:00.082Z,40.15
2018-08-22T10:46:28.856Z,39.85
2018-08-22T10:48:57.662Z,40.02
2018-08-22T10:51:26.314Z,41.14
2018-08-22T10:53:55.072Z,39.92
2018-08-22T10:56:23.812Z,39.98
2018-08-22T10:58:52.486Z,39.42
2018-08-22T11:01:21.202Z,38.68
2018-08-22T11:03:49.905Z,39.40
2018-08-22T11:06:18.683Z,39.23
2018-08-22T11:08:47.362Z,38.05
2018-08-22T11:11:16.077Z,38.08
2018-08-22T11:13:44.988Z,38.04
2018-08-22T11:16:13.641Z,38.30
2018-08-22T11:18:42.871Z,38.93
2018-08-22T11:21:22.739Z,39.93
2018-08-22T11:24:02.760Z,39.11
2018-08-22T11:26:42.398Z,38.99
2018-08-22T11:29:22.283Z,39.00
2018-08-22T11:32:01.994Z,38.05
2018-08-22T11:34:41.863Z,38.24
2018-08-22T11:37:11.838Z,38.71
2018-08-22T11:39:40.582Z,37.33
2018-08-22T11:42:09.309Z,36.02
2018-08-22T11:44:38.224Z,36.27
2018-08-22T11:47:06.984Z,35.39
2018-08-22T11:49:35.769Z,34.26
2018-08-22T11:52:04.487Z,33.83
2018-08-22T11:54:33.357Z,33.94
2018-08-22T11:57:02.981Z,33.19
2018-08-22T11:59:31.950Z,32.82
2018-08-22T12:02:00.671Z,32.57
2018-08-22T12:04:29.330Z,32.41
2018-08-22T12:06:58.060Z,33.24
2018-08-22T12:09:26.840Z,32.86
2018-08-22T12:11:55.714Z,32.41
2018-08-22T12:14:24.476Z,31.07
2018-08-22T12:16:53.613Z,31.15
2018-08-22T12:19:22.245Z,31.00
2018-08-22T12:21:50.969Z,31.42
2018-08-22T12:24:19.668Z,32.28
2018-08-22T12:26:48.679Z,31.29
2018-08-22T12:29:17.528Z,31.19
2018-08-22T12:31:46.321Z,31.55
2018-08-22T12:34:15.338Z,29.88
2018-08-22T12:36:44.093Z,31.21
2018-08-22T12:39:12.867Z,29.39
2018-08-22T12:41:41.806Z,27.74
2018-08-22T12:44:10.589Z,27.38
2018-08-22T12:46:39.246Z,28.13
2018-08-22T12:49:08.078Z,25.86
2018-08-22T12:51:39.236Z,27.34
2018-08-22T12:54:08.033Z,26.13
2018-08-22T12:56:36.802Z,26.61
2018-08-22T12:59:05.895Z,25.71
2018-08-22T13:01:35.045Z,25.35
2018-08-22T13:04:03.743Z,25.71
2018-08-22T13:06:32.470Z,25.68
2018-08-22T13:09:01.674Z,24.40
2018-08-22T13:11:30.438Z,23.67
2018-08-22T13:13:59.130Z,22.34
2018-08-22T13:16:27.902Z,23.09
2018-08-22T13:18:56.822Z,22.54
2018-08-22T13:21:26.113Z,22.76
2018-08-22T13:23:54.819Z,21.51
2018-08-22T13:26:23.830Z,22.04
2018-08-22T13:28:52.557Z,22.96
2018-08-22T13:31:21.300Z,24.93
2018-08-22T13:33:50.155Z,26.77
2018-08-22T13:36:21.793Z,27.49
2018-08-22T13:38:50.698Z,27.02
2018-08-22T13:41:19.388Z,25.28
2018-08-22T13:43:48.185Z,25.89
2018-08-22T13:46:17.009Z,24.13
2018-08-22T13:48:46.715Z,22.72
2018-08-22T13:51:16.262Z,21.80
2018-08-22T13:53:45.147Z,22.80
2018-08-22T13:56:13.891Z,22.82
2018-08-22T13:58:43.005Z,22.32
2018-08-22T14:01:11.870Z,22.23
2018-08-22T14:03:40.601Z,22.91
2018-08-22T14:09:08.565Z,24.01
2018-08-22T14:11:37.374Z,24.29
2018-08-22T14:14:06.324Z,25.63
2018-08-22T14:16:35.265Z,26.94
2018-08-22T14:19:03.946Z,25.85
2018-08-22T14:21:32.655Z,25.44
2018-08-22T14:24:01.591Z,29.14
2018-08-22T14:26:30.554Z,28.27
2018-08-22T14:28:59.286Z,28.62
2018-08-22T14:31:28.030Z,29.22
2018-08-22T14:33:56.699Z,29.39
2018-08-22T14:36:25.576Z,29.47
2018-08-22T14:38:54.331Z,28.88
2018-08-22T14:41:23.490Z,30.05
2018-08-22T14:43:52.192Z,29.86
2018-08-22T14:46:20.878Z,30.47
2018-08-22T14:48:49.844Z,31.01
2018-08-22T14:51:19.459Z,30.36
2018-08-22T14:53:48.293Z,32.00
2018-08-22T14:56:17.546Z,31.57
2018-08-22T14:58:46.609Z,30.57
2018-08-22T15:01:15.879Z,29.56
2018-08-22T15:03:46.918Z,29.69
2018-08-22T15:06:16.061Z,30.37
2018-08-22T15:08:44.985Z,30.06
2018-08-22T15:11:13.674Z,31.95
2018-08-22T15:13:42.354Z,31.12
2018-08-22T15:16:11.113Z,31.79
2018-08-22T15:18:40.367Z,31.35
2018-08-22T15:21:14.188Z,32.03
2018-08-22T15:23:42.927Z,32.14
2018-08-22T15:26:12.277Z,32.07
2018-08-22T15:28:41.408Z,31.10
2018-08-22T15:31:10.177Z,32.30
2018-08-22T15:33:39.556Z,31.79
2018-08-22T15:36:08.367Z,32.11
2018-08-22T15:38:37.079Z,32.35
2018-08-22T15:41:06.370Z,32.48
2018-08-22T15:43:35.517Z,31.99
2018-08-22T15:46:04.264Z,31.87
2018-08-22T15:48:33.082Z,32.05
2018-08-22T15:51:02.222Z,31.30
2018-08-22T15:53:31.402Z,31.62
2018-08-22T15:56:00.121Z,32.87
2018-08-22T15:58:28.986Z,32.69
2018-08-22T16:03:41.849Z,32.19
2018-08-22T16:06:10.587Z,32.00
2018-08-22T16:08:39.416Z,32.64
2018-08-22T16:11:08.109Z,32.07
2018-08-22T16:13:38.067Z,32.65
2018-08-22T16:16:06.864Z,32.37
2018-08-22T16:18:35.508Z,32.51
2018-08-22T16:21:06.467Z,32.77
2018-08-22T16:23:36.018Z,31.98
2018-08-22T16:26:05.844Z,31.65
2018-08-22T16:28:46.993Z,32.49
2018-08-22T16:31:16.068Z,32.73
2018-08-22T16:33:44.711Z,32.38
2018-08-22T16:36:19.613Z,33.49
2018-08-22T16:38:48.502Z,32.57
2018-08-22T16:41:18.439Z,33.23
2018-08-22T16:43:49.757Z,33.22
2018-08-22T16:46:18.625Z,33.05
2018-08-22T16:48:50.646Z,32.76
2018-08-22T16:51:20.242Z,33.37
2018-08-22T16:54:02.962Z,33.55
2018-08-22T16:56:34.113Z,33.53
2018-08-22T16:59:09.995Z,33.22
2018-08-22T17:01:47.110Z,33.46
2018-08-22T17:04:15.989Z,33.25
2018-08-22T17:06:44.846Z,33.22
2018-08-22T17:09:13.530Z,33.70
2018-08-22T17:11:42.520Z,33.61
2018-08-22T17:14:11.170Z,33.65
2018-08-22T17:16:39.963Z,33.83
2018-08-22T17:19:08.607Z,34.08
2018-08-22T17:21:37.390Z,34.41
2018-08-22T17:24:06.295Z,34.64
2018-08-22T17:26:35.792Z,34.31
2018-08-22T17:29:04.545Z,34.07
2018-08-22T17:31:33.321Z,33.96
2018-08-22T17:34:03.248Z,35.02
2018-08-22T17:36:31.964Z,35.54
2018-08-22T17:39:01.818Z,36.14
2018-08-22T17:41:31.467Z,35.96
2018-08-22T17:44:03.285Z,35.63
2018-08-22T17:46:35.364Z,36.34
2018-08-22T17:49:04.970Z,36.58
2018-08-22T17:51:45.069Z,36.90
2018-08-22T17:54:13.829Z,37.44
2018-08-22T17:56:43.001Z,37.54
2018-08-22T17:59:11.845Z,37.48
2018-08-22T18:01:40.954Z,37.47
2018-08-22T18:04:09.730Z,37.96
2018-08-22T18:06:38.449Z,37.86
2018-08-22T18:09:07.518Z,38.41
2018-08-22T18:11:36.262Z,38.71
2018-08-22T18:14:05.077Z,39.00
2018-08-22T18:16:33.977Z,39.12
2018-08-22T18:19:02.829Z,39.51
2018-08-22T18:21:38.611Z,39.92
2018-08-22T18:24:08.502Z,40.48
2018-08-22T18:26:37.175Z,40.64
2018-08-22T18:29:06.021Z,41.20
2018-08-22T18:31:34.873Z,41.16
2018-08-22T18:34:04.071Z,41.36
2018-08-22T18:36:33.520Z,41.37
2018-08-22T18:39:06.973Z,41.21
2018-08-22T18:41:35.801Z,41.44
2018-08-22T18:44:04.769Z,41.34
2018-08-22T18:46:33.662Z,41.26
2018-08-22T18:49:02.783Z,41.42
2018-08-22T18:51:31.743Z,41.38
2018-08-22T18:54:01.564Z,41.56
2018-08-22T18:56:30.503Z,41.35
2018-08-22T18:59:03.721Z,41.03
2018-08-22T19:01:32.685Z,41.03
2018-08-22T19:04:01.323Z,41.14
2018-08-22T19:06:30.147Z,42.32
2018-08-22T19:08:58.838Z,42.96
2018-08-22T19:11:27.717Z,43.60
2018-08-22T19:13:56.502Z,44.42
2018-08-22T19:16:25.200Z,45.73
2018-08-22T19:18:53.890Z,46.00
2018-08-22T19:21:22.934Z,46.37
2018-08-22T19:23:57.144Z,47.57
2018-08-22T19:26:26.698Z,47.82
2018-08-22T19:28:58.626Z,48.01
2018-08-22T19:31:27.419Z,47.44
2018-08-22T19:33:56.186Z,47.35
2018-08-22T19:36:25.236Z,48.05
2018-08-22T19:38:54.112Z,48.38
2018-08-22T19:41:29.371Z,47.62
2018-08-22T19:43:58.032Z,48.12
2018-08-22T19:46:26.808Z,47.90
2018-08-22T19:48:55.684Z,47.18
2018-08-22T19:51:24.386Z,46.88
2018-08-22T19:53:59.729Z,46.88
2018-08-22T19:56:29.030Z,47.32
2018-08-22T19:58:57.938Z,46.04
2018-08-22T20:01:32.583Z,46.53
2018-08-22T20:04:01.494Z,45.51
2018-08-22T20:06:30.579Z,45.01
2018-08-22T20:09:00.571Z,45.26
2018-08-22T20:11:31.977Z,46.00
2018-08-22T20:14:06.643Z,46.51
2018-08-22T20:16:35.548Z,46.86
2018-08-22T20:19:05.348Z,46.26
2018-08-22T20:21:35.305Z,46.26
2018-08-22T20:24:05.481Z,46.56
2018-08-22T20:26:34.806Z,46.79
2018-08-22T20:29:04.946Z,46.84
2018-08-22T20:31:35.642Z,48.31
2018-08-22T20:34:15.786Z,47.96
2018-08-22T20:36:46.154Z,47.60
2018-08-22T20:39:15.340Z,48.16
2018-08-22T20:41:44.739Z,48.02
2018-08-22T20:44:16.293Z,47.54
2018-08-22T20:46:46.435Z,48.79
2018-08-22T20:49:16.561Z,49.13
2018-08-22T20:51:45.291Z,48.88
2018-08-22T20:54:15.330Z,48.69
2018-08-22T20:56:49.376Z,48.64
2018-08-22T20:59:19.468Z,49.24
2018-08-22T21:01:53.177Z,49.81
2018-08-22T21:04:22.446Z,49.88
2018-08-22T21:06:51.145Z,50.65
2018-08-22T21:09:20.451Z,50.45
2018-08-22T21:11:49.897Z,51.06
2018-08-22T21:14:19.027Z,51.22
2018-08-22T21:16:47.726Z,52.02
2018-08-22T21:19:16.561Z,52.08
2018-08-22T21:21:45.407Z,52.99
2018-08-22T21:24:14.181Z,53.23
2018-08-22T21:26:44.781Z,53.41
2018-08-22T21:29:13.659Z,53.26
2018-08-22T21:31:42.315Z,53.44
2018-08-22T21:34:16.124Z,53.74
2018-08-22T21:36:46.161Z,53.97
2018-08-22T21:39:20.047Z,53.98
2018-08-22T21:41:49.360Z,54.39
2018-08-22T21:44:20.418Z,54.06
2018-08-22T21:46:56.213Z,54.26
2018-08-22T21:49:25.440Z,54.86
2018-08-22T21:51:57.023Z,53.53
2018-08-22T21:54:25.886Z,53.00
2018-08-22T21:56:54.573Z,53.22
2018-08-22T21:59:23.284Z,52.42
2018-08-22T22:01:57.349Z,52.92
2018-08-22T22:04:30.126Z,52.97
2018-08-22T22:06:58.838Z,52.78
2018-08-22T22:09:27.518Z,53.09
2018-08-22T22:11:59.166Z,52.78
2018-08-22T22:14:31.276Z,52.82
2018-08-22T22:17:01.072Z,53.87
2018-08-22T22:19:32.859Z,52.58
2018-08-22T22:22:02.337Z,52.89
2018-08-22T22:24:31.066Z,53.01
2018-08-22T22:27:00.342Z,53.83
2018-08-22T22:29:31.532Z,54.18
2018-08-22T22:32:00.298Z,54.52
2018-08-22T22:34:29.022Z,55.31
2018-08-22T22:36:57.650Z,55.34
2018-08-22T22:39:38.056Z,56.09
2018-08-22T22:42:16.685Z,56.08
2018-08-22T22:44:47.061Z,56.67
2018-08-22T22:47:20.855Z,56.49
2018-08-22T22:49:50.467Z,56.08
2018-08-22T22:52:35.771Z,56.53
2018-08-22T22:55:05.843Z,55.60
2018-08-22T22:57:36.103Z,55.57
2018-08-22T23:00:05.939Z,56.51
2018-08-22T23:02:34.805Z,55.87
2018-08-22T23:05:03.603Z,55.50
2018-08-22T23:07:34.712Z,55.43
2018-08-22T23:10:07.838Z,56.38
2018-08-22T23:12:50.663Z,55.92
2018-08-22T23:15:23.222Z,55.84
2018-08-22T23:17:53.836Z,56.25
2018-08-22T23:20:36.023Z,56.00
2018-08-22T23:23:09.100Z,56.24
2018-08-22T23:25:38.447Z,56.57
2018-08-22T23:28:07.197Z,56.86
2018-08-22T23:30:37.233Z,56.98
2018-08-22T23:33:06.851Z,57.56
2018-08-22T23:35:36.567Z,57.83
2018-08-22T23:38:07.993Z,58.12
2018-08-22T23:40:37.915Z,58.33
2018-08-22T23:43:06.572Z,58.68
2018-08-22T23:45:37.195Z,58.90
2018-08-22T23:48:06.677Z,58.78
2018-08-22T23:50:43.706Z,58.27
2018-08-22T23:53:12.344Z,58.35
2018-08-22T23:55:41.182Z,58.60
2018-08-22T23:58:09.858Z,58.56
